sensor_id;sensor_type;location;lat;lon;timestamp;temperature;humidity
84008;DHT22;74070;50.948;6.954;2024-02-26T00:02:11;7.10;99.90
84008;DHT22;74070;50.948;6.954;2024-02-26T00:04:38;7.10;99.90
84008;DHT22;74070;50.948;6.954;2024-02-26T00:07:05;7.00;99.90
84008;DHT22;74070;50.948;6.954;2024-02-26T00:09:32;7.00;99.90
84008;DHT22;74070;50.948;6.954;2024-02-26T00:12:00;7.00;99.90
84008;DHT22;74070;50.948;6.954;2024-02-26T00:14:26;7.00;99.90
84008;DHT22;74070;50.948;6.954;2024-02-26T00:16:53;7.00;99.90
84008;DHT22;74070;50.948;6.954;2024-02-26T00:19:19;6.90;99.90
84008;DHT22;74070;50.948;6.954;2024-02-26T00:21:47;6.90;99.90
84008;DHT22;74070;50.948;6.954;2024-02-26T00:24:14;6.80;99.90
84008;DHT22;74070;50.948;6.954;2024-02-26T00:26:42;6.80;99.90
84008;DHT22;74070;50.948;6.954;2024-02-26T00:29:09;6.90;99.90
84008;DHT22;74070;50.948;6.954;2024-02-26T00:31:36;6.90;99.90
84008;DHT22;74070;50.948;6.954;2024-02-26T00:34:04;6.80;99.90
84008;DHT22;74070;50.948;6.954;2024-02-26T00:36:30;6.80;99.90
84008;DHT22;74070;50.948;6.954;2024-02-26T00:38:57;6.90;99.90
84008;DHT22;74070;50.948;6.954;2024-02-26T00:41:24;6.80;99.90
84008;DHT22;74070;50.948;6.954;2024-02-26T00:43:51;6.80;99.90
84008;DHT22;74070;50.948;6.954;2024-02-26T00:46:19;6.80;99.90
84008;DHT22;74070;50.948;6.954;2024-02-26T00:48:46;6.80;99.90
84008;DHT22;74070;50.948;6.954;2024-02-26T00:51:14;6.90;99.90
84008;DHT22;74070;50.948;6.954;2024-02-26T00:53:40;6.80;99.90
84008;DHT22;74070;50.948;6.954;2024-02-26T00:56:07;6.80;99.90
84008;DHT22;74070;50.948;6.954;2024-02-26T00:58:34;6.80;99.90
84008;DHT22;74070;50.948;6.954;2024-02-26T01:01:01;6.70;99.90
84008;DHT22;74070;50.948;6.954;2024-02-26T01:03:28;6.70;99.90
84008;DHT22;74070;50.948;6.954;2024-02-26T01:05:55;6.80;99.90
84008;DHT22;74070;50.948;6.954;2024-02-26T01:08:21;6.70;99.90
84008;DHT22;74070;50.948;6.954;2024-02-26T01:10:48;6.60;99.90
84008;DHT22;74070;50.948;6.954;2024-02-26T01:13:14;6.60;99.90
84008;DHT22;74070;50.948;6.954;2024-02-26T01:15:41;6.50;99.90
84008;DHT22;74070;50.948;6.954;2024-02-26T01:18:08;6.50;99.90
84008;DHT22;74070;50.948;6.954;2024-02-26T01:20:34;6.40;99.90
84008;DHT22;74070;50.948;6.954;2024-02-26T01:23:01;6.40;99.90
84008;DHT22;74070;50.948;6.954;2024-02-26T01:25:27;6.40;99.90
84008;DHT22;74070;50.948;6.954;2024-02-26T01:27:54;6.40;99.90
84008;DHT22;74070;50.948;6.954;2024-02-26T01:30:21;6.50;99.90
84008;DHT22;74070;50.948;6.954;2024-02-26T01:32:49;6.50;99.90
84008;DHT22;74070;50.948;6.954;2024-02-26T01:35:16;6.50;99.90
84008;DHT22;74070;50.948;6.954;2024-02-26T01:37:43;6.40;99.90
84008;DHT22;74070;50.948;6.954;2024-02-26T01:40:10;6.50;99.90
84008;DHT22;74070;50.948;6.954;2024-02-26T01:42:38;6.40;99.90
84008;DHT22;74070;50.948;6.954;2024-02-26T01:45:06;6.50;99.90
84008;DHT22;74070;50.948;6.954;2024-02-26T01:47:33;6.40;99.90
84008;DHT22;74070;50.948;6.954;2024-02-26T01:50:00;6.40;99.90
84008;DHT22;74070;50.948;6.954;2024-02-26T01:52:27;6.40;99.90
84008;DHT22;74070;50.948;6.954;2024-02-26T01:54:53;6.40;99.90
84008;DHT22;74070;50.948;6.954;2024-02-26T01:57:20;6.40;99.90
84008;DHT22;74070;50.948;6.954;2024-02-26T01:59:47;6.30;99.90
84008;DHT22;74070;50.948;6.954;2024-02-26T02:02:13;6.30;99.90
84008;DHT22;74070;50.948;6.954;2024-02-26T02:04:40;6.30;99.90
84008;DHT22;74070;50.948;6.954;2024-02-26T02:07:06;6.30;99.90
84008;DHT22;74070;50.948;6.954;2024-02-26T02:09:33;6.30;99.90
84008;DHT22;74070;50.948;6.954;2024-02-26T02:12:00;6.30;99.90
84008;DHT22;74070;50.948;6.954;2024-02-26T02:14:27;6.30;99.90
84008;DHT22;74070;50.948;6.954;2024-02-26T02:16:54;6.20;99.90
84008;DHT22;74070;50.948;6.954;2024-02-26T02:19:20;6.30;99.90
84008;DHT22;74070;50.948;6.954;2024-02-26T02:21:47;6.20;99.90
84008;DHT22;74070;50.948;6.954;2024-02-26T02:24:15;6.20;99.90
84008;DHT22;74070;50.948;6.954;2024-02-26T02:26:42;6.30;99.90
84008;DHT22;74070;50.948;6.954;2024-02-26T02:29:10;6.20;99.90
84008;DHT22;74070;50.948;6.954;2024-02-26T02:31:37;6.20;99.90
84008;DHT22;74070;50.948;6.954;2024-02-26T02:34:04;6.30;99.90
84008;DHT22;74070;50.948;6.954;2024-02-26T02:36:32;6.30;99.90
84008;DHT22;74070;50.948;6.954;2024-02-26T02:38:59;6.30;99.90
84008;DHT22;74070;50.948;6.954;2024-02-26T02:41:26;6.30;99.90
84008;DHT22;74070;50.948;6.954;2024-02-26T02:43:54;6.30;99.90
84008;DHT22;74070;50.948;6.954;2024-02-26T02:46:21;6.30;99.90
84008;DHT22;74070;50.948;6.954;2024-02-26T02:48:48;6.20;99.90
84008;DHT22;74070;50.948;6.954;2024-02-26T02:51:14;6.20;99.90
84008;DHT22;74070;50.948;6.954;2024-02-26T02:53:42;6.20;99.90
84008;DHT22;74070;50.948;6.954;2024-02-26T02:56:09;6.20;99.90
84008;DHT22;74070;50.948;6.954;2024-02-26T02:58:36;6.20;99.90
84008;DHT22;74070;50.948;6.954;2024-02-26T03:01:04;6.20;99.90
84008;DHT22;74070;50.948;6.954;2024-02-26T03:03:31;6.20;99.90
84008;DHT22;74070;50.948;6.954;2024-02-26T03:05:58;6.20;99.90
84008;DHT22;74070;50.948;6.954;2024-02-26T03:08:26;6.20;99.90
84008;DHT22;74070;50.948;6.954;2024-02-26T03:10:53;6.20;99.90
84008;DHT22;74070;50.948;6.954;2024-02-26T03:13:21;6.20;99.90
84008;DHT22;74070;50.948;6.954;2024-02-26T03:15:48;6.20;99.90
84008;DHT22;74070;50.948;6.954;2024-02-26T03:18:15;6.20;99.90
84008;DHT22;74070;50.948;6.954;2024-02-26T03:20:42;6.20;99.90
84008;DHT22;74070;50.948;6.954;2024-02-26T03:23:10;6.20;99.90
84008;DHT22;74070;50.948;6.954;2024-02-26T03:25:36;6.20;99.90
84008;DHT22;74070;50.948;6.954;2024-02-26T03:28:03;6.20;99.90
84008;DHT22;74070;50.948;6.954;2024-02-26T03:30:30;6.20;99.90
84008;DHT22;74070;50.948;6.954;2024-02-26T03:32:57;6.20;99.90
84008;DHT22;74070;50.948;6.954;2024-02-26T03:35:24;6.20;99.90
84008;DHT22;74070;50.948;6.954;2024-02-26T03:37:52;6.20;99.90
84008;DHT22;74070;50.948;6.954;2024-02-26T03:40:19;6.20;99.90
84008;DHT22;74070;50.948;6.954;2024-02-26T03:42:47;6.20;99.90
84008;DHT22;74070;50.948;6.954;2024-02-26T03:45:14;6.20;99.90
84008;DHT22;74070;50.948;6.954;2024-02-26T03:47:40;6.20;99.90
84008;DHT22;74070;50.948;6.954;2024-02-26T03:50:07;6.20;99.90
84008;DHT22;74070;50.948;6.954;2024-02-26T03:52:34;6.20;99.90
84008;DHT22;74070;50.948;6.954;2024-02-26T03:55:00;6.10;99.90
84008;DHT22;74070;50.948;6.954;2024-02-26T03:57:27;6.10;99.90
84008;DHT22;74070;50.948;6.954;2024-02-26T03:59:54;6.10;99.90
84008;DHT22;74070;50.948;6.954;2024-02-26T04:02:20;6.10;99.90
84008;DHT22;74070;50.948;6.954;2024-02-26T04:04:48;6.00;99.90
84008;DHT22;74070;50.948;6.954;2024-02-26T04:07:14;6.00;99.90
84008;DHT22;74070;50.948;6.954;2024-02-26T04:09:41;6.10;99.90
84008;DHT22;74070;50.948;6.954;2024-02-26T04:12:08;6.00;99.90
84008;DHT22;74070;50.948;6.954;2024-02-26T04:14:36;6.00;99.90
84008;DHT22;74070;50.948;6.954;2024-02-26T04:17:03;6.00;99.90
84008;DHT22;74070;50.948;6.954;2024-02-26T04:19:30;6.00;99.90
84008;DHT22;74070;50.948;6.954;2024-02-26T04:21:58;6.00;99.90
84008;DHT22;74070;50.948;6.954;2024-02-26T04:24:24;6.00;99.90
84008;DHT22;74070;50.948;6.954;2024-02-26T04:26:51;6.00;99.90
84008;DHT22;74070;50.948;6.954;2024-02-26T04:29:18;6.00;99.90
84008;DHT22;74070;50.948;6.954;2024-02-26T04:31:46;6.00;99.90
84008;DHT22;74070;50.948;6.954;2024-02-26T04:34:13;6.00;99.90
84008;DHT22;74070;50.948;6.954;2024-02-26T04:36:40;6.00;99.90
84008;DHT22;74070;50.948;6.954;2024-02-26T04:39:08;6.00;99.90
84008;DHT22;74070;50.948;6.954;2024-02-26T04:41:35;6.00;99.90
84008;DHT22;74070;50.948;6.954;2024-02-26T04:44:02;5.90;99.90
84008;DHT22;74070;50.948;6.954;2024-02-26T04:46:29;5.90;99.90
84008;DHT22;74070;50.948;6.954;2024-02-26T04:48:56;5.90;99.90
84008;DHT22;74070;50.948;6.954;2024-02-26T04:51:23;5.90;99.90
84008;DHT22;74070;50.948;6.954;2024-02-26T04:53:50;5.90;99.90
84008;DHT22;74070;50.948;6.954;2024-02-26T04:56:18;6.00;99.90
84008;DHT22;74070;50.948;6.954;2024-02-26T04:58:45;6.00;99.90
84008;DHT22;74070;50.948;6.954;2024-02-26T05:01:12;6.00;99.90
84008;DHT22;74070;50.948;6.954;2024-02-26T05:03:40;5.90;99.90
84008;DHT22;74070;50.948;6.954;2024-02-26T05:06:07;6.00;99.90
84008;DHT22;74070;50.948;6.954;2024-02-26T05:08:34;5.90;99.90
84008;DHT22;74070;50.948;6.954;2024-02-26T05:11:02;5.90;99.90
84008;DHT22;74070;50.948;6.954;2024-02-26T05:13:29;6.00;99.90
84008;DHT22;74070;50.948;6.954;2024-02-26T05:15:55;6.00;99.90
84008;DHT22;74070;50.948;6.954;2024-02-26T05:18:22;6.00;99.90
84008;DHT22;74070;50.948;6.954;2024-02-26T05:20:49;6.00;99.90
84008;DHT22;74070;50.948;6.954;2024-02-26T05:23:15;6.00;99.90
84008;DHT22;74070;50.948;6.954;2024-02-26T05:25:43;5.90;99.90
84008;DHT22;74070;50.948;6.954;2024-02-26T05:28:09;5.90;99.90
84008;DHT22;74070;50.948;6.954;2024-02-26T05:30:36;5.90;99.90
84008;DHT22;74070;50.948;6.954;2024-02-26T05:33:03;5.90;99.90
84008;DHT22;74070;50.948;6.954;2024-02-26T05:35:29;5.90;99.90
84008;DHT22;74070;50.948;6.954;2024-02-26T05:37:56;5.90;99.90
84008;DHT22;74070;50.948;6.954;2024-02-26T05:40:22;5.90;99.90
84008;DHT22;74070;50.948;6.954;2024-02-26T05:42:49;5.80;99.90
84008;DHT22;74070;50.948;6.954;2024-02-26T05:45:15;5.80;99.90
84008;DHT22;74070;50.948;6.954;2024-02-26T05:47:42;5.80;99.90
84008;DHT22;74070;50.948;6.954;2024-02-26T05:50:09;5.80;99.90
84008;DHT22;74070;50.948;6.954;2024-02-26T05:52:36;5.80;99.90
84008;DHT22;74070;50.948;6.954;2024-02-26T05:55:02;5.80;99.90
84008;DHT22;74070;50.948;6.954;2024-02-26T05:57:29;5.80;99.90
84008;DHT22;74070;50.948;6.954;2024-02-26T05:59:55;5.80;99.90
84008;DHT22;74070;50.948;6.954;2024-02-26T06:02:22;5.80;99.90
84008;DHT22;74070;50.948;6.954;2024-02-26T06:04:48;5.80;99.90
84008;DHT22;74070;50.948;6.954;2024-02-26T06:07:16;5.90;99.90
84008;DHT22;74070;50.948;6.954;2024-02-26T06:09:42;5.80;99.90
84008;DHT22;74070;50.948;6.954;2024-02-26T06:12:09;5.90;99.90
84008;DHT22;74070;50.948;6.954;2024-02-26T06:14:36;5.90;99.90
84008;DHT22;74070;50.948;6.954;2024-02-26T06:17:02;5.90;99.90
84008;DHT22;74070;50.948;6.954;2024-02-26T06:19:29;5.90;99.90
84008;DHT22;74070;50.948;6.954;2024-02-26T06:21:55;5.90;99.90
84008;DHT22;74070;50.948;6.954;2024-02-26T06:24:22;5.90;99.90
84008;DHT22;74070;50.948;6.954;2024-02-26T06:26:49;5.80;99.90
84008;DHT22;74070;50.948;6.954;2024-02-26T06:29:15;5.90;99.90
84008;DHT22;74070;50.948;6.954;2024-02-26T06:31:42;5.80;99.90
84008;DHT22;74070;50.948;6.954;2024-02-26T06:34:08;5.80;99.90
84008;DHT22;74070;50.948;6.954;2024-02-26T06:36:35;5.80;99.90
84008;DHT22;74070;50.948;6.954;2024-02-26T06:39:02;5.80;99.90
84008;DHT22;74070;50.948;6.954;2024-02-26T06:41:28;5.80;99.90
84008;DHT22;74070;50.948;6.954;2024-02-26T06:43:55;5.90;99.90
84008;DHT22;74070;50.948;6.954;2024-02-26T06:46:22;5.90;99.90
84008;DHT22;74070;50.948;6.954;2024-02-26T06:48:48;5.90;99.90
84008;DHT22;74070;50.948;6.954;2024-02-26T06:51:15;5.90;99.90
84008;DHT22;74070;50.948;6.954;2024-02-26T06:53:43;5.90;99.90
84008;DHT22;74070;50.948;6.954;2024-02-26T06:56:09;5.80;99.90
84008;DHT22;74070;50.948;6.954;2024-02-26T06:58:36;5.80;99.90
84008;DHT22;74070;50.948;6.954;2024-02-26T07:01:03;5.90;99.90
84008;DHT22;74070;50.948;6.954;2024-02-26T07:03:30;5.80;99.90
84008;DHT22;74070;50.948;6.954;2024-02-26T07:05:56;5.90;99.90
84008;DHT22;74070;50.948;6.954;2024-02-26T07:08:23;5.90;99.90
84008;DHT22;74070;50.948;6.954;2024-02-26T07:10:49;5.90;99.90
84008;DHT22;74070;50.948;6.954;2024-02-26T07:13:16;5.90;99.90
84008;DHT22;74070;50.948;6.954;2024-02-26T07:15:43;5.90;99.90
84008;DHT22;74070;50.948;6.954;2024-02-26T07:18:10;6.00;99.90
84008;DHT22;74070;50.948;6.954;2024-02-26T07:20:36;5.90;99.90
84008;DHT22;74070;50.948;6.954;2024-02-26T07:23:03;5.90;99.90
84008;DHT22;74070;50.948;6.954;2024-02-26T07:25:29;5.90;99.90
84008;DHT22;74070;50.948;6.954;2024-02-26T07:27:56;5.90;99.90
84008;DHT22;74070;50.948;6.954;2024-02-26T07:30:23;5.90;99.90
84008;DHT22;74070;50.948;6.954;2024-02-26T07:32:50;5.90;99.90
84008;DHT22;74070;50.948;6.954;2024-02-26T07:35:17;5.90;99.90
84008;DHT22;74070;50.948;6.954;2024-02-26T07:37:44;5.90;99.90
84008;DHT22;74070;50.948;6.954;2024-02-26T07:40:12;5.90;99.90
84008;DHT22;74070;50.948;6.954;2024-02-26T07:42:38;5.90;99.90
84008;DHT22;74070;50.948;6.954;2024-02-26T07:45:05;6.00;99.90
84008;DHT22;74070;50.948;6.954;2024-02-26T07:47:32;6.00;99.90
84008;DHT22;74070;50.948;6.954;2024-02-26T07:49:58;5.90;99.90
84008;DHT22;74070;50.948;6.954;2024-02-26T07:52:26;5.90;99.90
84008;DHT22;74070;50.948;6.954;2024-02-26T07:54:52;5.90;99.90
84008;DHT22;74070;50.948;6.954;2024-02-26T07:57:19;5.90;99.90
84008;DHT22;74070;50.948;6.954;2024-02-26T07:59:46;5.90;99.90
84008;DHT22;74070;50.948;6.954;2024-02-26T08:02:13;6.00;99.90
84008;DHT22;74070;50.948;6.954;2024-02-26T08:04:39;6.00;99.90
84008;DHT22;74070;50.948;6.954;2024-02-26T08:07:06;6.00;99.90
84008;DHT22;74070;50.948;6.954;2024-02-26T08:09:32;6.00;99.90
84008;DHT22;74070;50.948;6.954;2024-02-26T08:11:59;6.00;99.90
84008;DHT22;74070;50.948;6.954;2024-02-26T08:14:26;6.00;99.90
84008;DHT22;74070;50.948;6.954;2024-02-26T08:16:52;6.00;99.90
84008;DHT22;74070;50.948;6.954;2024-02-26T08:19:19;6.00;99.90
84008;DHT22;74070;50.948;6.954;2024-02-26T08:21:47;6.00;99.90
84008;DHT22;74070;50.948;6.954;2024-02-26T08:24:13;6.10;99.90
84008;DHT22;74070;50.948;6.954;2024-02-26T08:26:40;6.10;99.90
84008;DHT22;74070;50.948;6.954;2024-02-26T08:29:06;6.00;99.90
84008;DHT22;74070;50.948;6.954;2024-02-26T08:31:33;6.00;99.90
84008;DHT22;74070;50.948;6.954;2024-02-26T08:33:59;6.00;99.90
84008;DHT22;74070;50.948;6.954;2024-02-26T08:36:26;6.00;99.90
84008;DHT22;74070;50.948;6.954;2024-02-26T08:38:53;6.00;99.90
84008;DHT22;74070;50.948;6.954;2024-02-26T08:41:19;6.00;99.90
84008;DHT22;74070;50.948;6.954;2024-02-26T08:43:46;6.10;99.90
84008;DHT22;74070;50.948;6.954;2024-02-26T08:46:12;6.10;99.90
84008;DHT22;74070;50.948;6.954;2024-02-26T08:48:39;6.10;99.90
84008;DHT22;74070;50.948;6.954;2024-02-26T08:51:07;6.10;99.90
84008;DHT22;74070;50.948;6.954;2024-02-26T08:53:34;6.10;99.90
84008;DHT22;74070;50.948;6.954;2024-02-26T08:56:01;6.00;99.90
84008;DHT22;74070;50.948;6.954;2024-02-26T08:58:28;6.10;99.90
84008;DHT22;74070;50.948;6.954;2024-02-26T09:00:55;6.10;99.90
84008;DHT22;74070;50.948;6.954;2024-02-26T09:03:23;6.10;99.90
84008;DHT22;74070;50.948;6.954;2024-02-26T09:05:50;6.10;99.90
84008;DHT22;74070;50.948;6.954;2024-02-26T09:08:18;6.20;99.90
84008;DHT22;74070;50.948;6.954;2024-02-26T09:10:45;6.20;99.90
84008;DHT22;74070;50.948;6.954;2024-02-26T09:13:12;6.10;99.90
84008;DHT22;74070;50.948;6.954;2024-02-26T09:15:41;6.20;99.90
84008;DHT22;74070;50.948;6.954;2024-02-26T09:18:08;6.20;99.90
84008;DHT22;74070;50.948;6.954;2024-02-26T09:20:34;6.10;99.90
84008;DHT22;74070;50.948;6.954;2024-02-26T09:23:01;6.10;99.90
84008;DHT22;74070;50.948;6.954;2024-02-26T09:25:28;6.10;99.90
84008;DHT22;74070;50.948;6.954;2024-02-26T09:27:54;6.10;99.90
84008;DHT22;74070;50.948;6.954;2024-02-26T09:30:22;6.10;99.90
84008;DHT22;74070;50.948;6.954;2024-02-26T09:32:48;6.10;99.90
84008;DHT22;74070;50.948;6.954;2024-02-26T09:35:15;6.10;99.90
84008;DHT22;74070;50.948;6.954;2024-02-26T09:37:41;6.10;99.90
84008;DHT22;74070;50.948;6.954;2024-02-26T09:40:08;6.10;99.90
84008;DHT22;74070;50.948;6.954;2024-02-26T09:42:35;6.10;99.90
84008;DHT22;74070;50.948;6.954;2024-02-26T09:45:02;6.10;99.90
84008;DHT22;74070;50.948;6.954;2024-02-26T09:47:30;6.10;99.90
84008;DHT22;74070;50.948;6.954;2024-02-26T09:49:56;6.10;99.90
84008;DHT22;74070;50.948;6.954;2024-02-26T09:52:24;6.10;99.90
84008;DHT22;74070;50.948;6.954;2024-02-26T09:54:51;6.10;99.90
84008;DHT22;74070;50.948;6.954;2024-02-26T09:57:18;6.10;99.90
84008;DHT22;74070;50.948;6.954;2024-02-26T09:59:44;6.10;99.90
84008;DHT22;74070;50.948;6.954;2024-02-26T10:02:13;6.10;99.90
84008;DHT22;74070;50.948;6.954;2024-02-26T10:04:39;6.20;99.90
84008;DHT22;74070;50.948;6.954;2024-02-26T10:07:13;6.20;99.90
84008;DHT22;74070;50.948;6.954;2024-02-26T10:09:40;6.10;99.90
84008;DHT22;74070;50.948;6.954;2024-02-26T10:12:08;6.20;99.90
84008;DHT22;74070;50.948;6.954;2024-02-26T10:14:34;6.20;99.90
84008;DHT22;74070;50.948;6.954;2024-02-26T10:17:01;6.10;99.90
84008;DHT22;74070;50.948;6.954;2024-02-26T10:19:28;6.20;99.90
84008;DHT22;74070;50.948;6.954;2024-02-26T10:21:57;6.20;99.90
84008;DHT22;74070;50.948;6.954;2024-02-26T10:24:24;6.20;99.90
84008;DHT22;74070;50.948;6.954;2024-02-26T10:26:51;6.20;99.90
84008;DHT22;74070;50.948;6.954;2024-02-26T10:29:18;6.30;99.90
84008;DHT22;74070;50.948;6.954;2024-02-26T10:31:44;6.30;99.90
84008;DHT22;74070;50.948;6.954;2024-02-26T10:34:10;6.30;99.90
84008;DHT22;74070;50.948;6.954;2024-02-26T10:36:37;6.40;99.90
84008;DHT22;74070;50.948;6.954;2024-02-26T10:39:04;6.50;99.90
84008;DHT22;74070;50.948;6.954;2024-02-26T10:41:32;6.60;99.90
84008;DHT22;74070;50.948;6.954;2024-02-26T10:43:59;6.60;99.90
84008;DHT22;74070;50.948;6.954;2024-02-26T10:46:26;6.60;99.90
84008;DHT22;74070;50.948;6.954;2024-02-26T10:48:52;6.80;99.90
84008;DHT22;74070;50.948;6.954;2024-02-26T10:51:20;6.90;99.90
84008;DHT22;74070;50.948;6.954;2024-02-26T10:53:47;7.00;99.90
84008;DHT22;74070;50.948;6.954;2024-02-26T10:56:14;7.10;99.90
84008;DHT22;74070;50.948;6.954;2024-02-26T10:58:42;7.00;99.90
84008;DHT22;74070;50.948;6.954;2024-02-26T11:01:09;7.00;99.90
84008;DHT22;74070;50.948;6.954;2024-02-26T11:03:36;7.00;99.90
84008;DHT22;74070;50.948;6.954;2024-02-26T11:06:03;7.00;99.90
84008;DHT22;74070;50.948;6.954;2024-02-26T11:08:30;7.00;99.90
84008;DHT22;74070;50.948;6.954;2024-02-26T11:10:57;7.10;99.90
84008;DHT22;74070;50.948;6.954;2024-02-26T11:13:26;7.10;99.90
84008;DHT22;74070;50.948;6.954;2024-02-26T11:15:51;7.20;99.90
84008;DHT22;74070;50.948;6.954;2024-02-26T11:18:18;7.20;99.90
84008;DHT22;74070;50.948;6.954;2024-02-26T11:20:45;7.30;99.90
84008;DHT22;74070;50.948;6.954;2024-02-26T11:23:12;7.40;99.90
84008;DHT22;74070;50.948;6.954;2024-02-26T11:25:38;7.30;99.90
84008;DHT22;74070;50.948;6.954;2024-02-26T11:28:08;7.40;99.90
84008;DHT22;74070;50.948;6.954;2024-02-26T11:30:34;7.30;99.90
84008;DHT22;74070;50.948;6.954;2024-02-26T11:33:00;7.40;99.90
84008;DHT22;74070;50.948;6.954;2024-02-26T11:35:28;7.60;99.90
84008;DHT22;74070;50.948;6.954;2024-02-26T11:37:55;7.60;99.90
84008;DHT22;74070;50.948;6.954;2024-02-26T11:40:23;7.50;99.90
84008;DHT22;74070;50.948;6.954;2024-02-26T11:42:48;7.50;99.90
84008;DHT22;74070;50.948;6.954;2024-02-26T11:47:56;7.50;99.90
84008;DHT22;74070;50.948;6.954;2024-02-26T11:50:40;7.40;99.90
84008;DHT22;74070;50.948;6.954;2024-02-26T11:55:45;7.20;99.90
84008;DHT22;74070;50.948;6.954;2024-02-26T11:58:11;7.20;99.90
84008;DHT22;74070;50.948;6.954;2024-02-26T12:00:40;7.30;99.90
84008;DHT22;74070;50.948;6.954;2024-02-26T12:03:07;7.30;99.90
84008;DHT22;74070;50.948;6.954;2024-02-26T12:05:33;7.30;99.90
84008;DHT22;74070;50.948;6.954;2024-02-26T12:08:01;7.40;99.90
84008;DHT22;74070;50.948;6.954;2024-02-26T12:10:28;7.50;99.90
84008;DHT22;74070;50.948;6.954;2024-02-26T12:12:58;7.50;99.90
84008;DHT22;74070;50.948;6.954;2024-02-26T12:15:22;7.40;99.90
84008;DHT22;74070;50.948;6.954;2024-02-26T12:17:48;7.40;99.90
84008;DHT22;74070;50.948;6.954;2024-02-26T12:20:15;7.50;99.90
84008;DHT22;74070;50.948;6.954;2024-02-26T12:22:41;7.50;99.90
84008;DHT22;74070;50.948;6.954;2024-02-26T12:25:09;7.60;99.90
84008;DHT22;74070;50.948;6.954;2024-02-26T12:27:36;7.40;99.90
84008;DHT22;74070;50.948;6.954;2024-02-26T12:30:05;7.40;99.90
84008;DHT22;74070;50.948;6.954;2024-02-26T12:32:33;7.40;99.90
84008;DHT22;74070;50.948;6.954;2024-02-26T12:35:00;7.40;99.90
84008;DHT22;74070;50.948;6.954;2024-02-26T12:37:27;7.50;99.90
84008;DHT22;74070;50.948;6.954;2024-02-26T12:39:55;7.40;99.90
84008;DHT22;74070;50.948;6.954;2024-02-26T12:42:21;7.40;99.90
84008;DHT22;74070;50.948;6.954;2024-02-26T12:44:49;7.40;99.90
84008;DHT22;74070;50.948;6.954;2024-02-26T12:47:14;7.30;99.90
84008;DHT22;74070;50.948;6.954;2024-02-26T12:49:42;7.30;99.90
84008;DHT22;74070;50.948;6.954;2024-02-26T12:52:08;7.30;99.90
84008;DHT22;74070;50.948;6.954;2024-02-26T12:54:34;7.30;99.90
84008;DHT22;74070;50.948;6.954;2024-02-26T12:57:01;7.30;99.90
84008;DHT22;74070;50.948;6.954;2024-02-26T12:59:27;7.30;99.90
84008;DHT22;74070;50.948;6.954;2024-02-26T13:01:54;7.30;99.90
84008;DHT22;74070;50.948;6.954;2024-02-26T13:04:21;7.30;99.90
84008;DHT22;74070;50.948;6.954;2024-02-26T13:06:48;7.40;99.90
84008;DHT22;74070;50.948;6.954;2024-02-26T13:09:14;7.40;99.90
84008;DHT22;74070;50.948;6.954;2024-02-26T13:11:41;7.50;99.90
84008;DHT22;74070;50.948;6.954;2024-02-26T13:14:08;7.50;99.90
84008;DHT22;74070;50.948;6.954;2024-02-26T13:16:34;7.60;99.90
84008;DHT22;74070;50.948;6.954;2024-02-26T13:19:09;7.50;99.90
84008;DHT22;74070;50.948;6.954;2024-02-26T13:21:34;7.50;99.90
84008;DHT22;74070;50.948;6.954;2024-02-26T13:24:01;7.40;99.90
84008;DHT22;74070;50.948;6.954;2024-02-26T13:26:28;7.40;99.90
84008;DHT22;74070;50.948;6.954;2024-02-26T13:29:01;7.50;99.90
84008;DHT22;74070;50.948;6.954;2024-02-26T13:31:27;7.40;99.90
84008;DHT22;74070;50.948;6.954;2024-02-26T13:33:53;7.60;99.90
84008;DHT22;74070;50.948;6.954;2024-02-26T13:36:20;7.50;99.90
84008;DHT22;74070;50.948;6.954;2024-02-26T13:38:54;7.60;99.90
84008;DHT22;74070;50.948;6.954;2024-02-26T13:41:21;7.60;99.90
84008;DHT22;74070;50.948;6.954;2024-02-26T13:43:48;7.70;99.90
84008;DHT22;74070;50.948;6.954;2024-02-26T13:46:14;7.70;99.90
84008;DHT22;74070;50.948;6.954;2024-02-26T13:48:41;7.70;99.90
84008;DHT22;74070;50.948;6.954;2024-02-26T13:51:07;7.60;99.90
84008;DHT22;74070;50.948;6.954;2024-02-26T13:53:35;7.70;99.90
84008;DHT22;74070;50.948;6.954;2024-02-26T13:56:02;7.70;99.90
84008;DHT22;74070;50.948;6.954;2024-02-26T13:58:29;7.60;99.90
84008;DHT22;74070;50.948;6.954;2024-02-26T14:00:55;7.80;99.90
84008;DHT22;74070;50.948;6.954;2024-02-26T14:03:23;7.70;99.90
84008;DHT22;74070;50.948;6.954;2024-02-26T14:05:50;7.70;99.90
84008;DHT22;74070;50.948;6.954;2024-02-26T14:08:17;7.70;99.90
84008;DHT22;74070;50.948;6.954;2024-02-26T14:10:44;7.60;99.90
84008;DHT22;74070;50.948;6.954;2024-02-26T14:13:11;7.60;99.90
84008;DHT22;74070;50.948;6.954;2024-02-26T14:15:37;7.60;99.90
84008;DHT22;74070;50.948;6.954;2024-02-26T14:18:04;7.60;99.90
84008;DHT22;74070;50.948;6.954;2024-02-26T14:20:31;7.60;99.90
84008;DHT22;74070;50.948;6.954;2024-02-26T14:22:58;7.60;99.90
84008;DHT22;74070;50.948;6.954;2024-02-26T14:25:24;7.60;99.90
84008;DHT22;74070;50.948;6.954;2024-02-26T14:27:51;7.60;99.90
84008;DHT22;74070;50.948;6.954;2024-02-26T14:30:18;7.70;99.90
84008;DHT22;74070;50.948;6.954;2024-02-26T14:32:44;7.70;99.90
84008;DHT22;74070;50.948;6.954;2024-02-26T14:35:11;7.80;99.90
84008;DHT22;74070;50.948;6.954;2024-02-26T14:37:38;7.80;99.90
84008;DHT22;74070;50.948;6.954;2024-02-26T14:40:05;7.80;99.90
84008;DHT22;74070;50.948;6.954;2024-02-26T14:42:32;7.80;99.90
84008;DHT22;74070;50.948;6.954;2024-02-26T14:44:59;7.80;99.90
84008;DHT22;74070;50.948;6.954;2024-02-26T14:47:26;7.80;99.90
84008;DHT22;74070;50.948;6.954;2024-02-26T14:49:53;7.80;99.90
84008;DHT22;74070;50.948;6.954;2024-02-26T14:52:20;7.80;99.90
84008;DHT22;74070;50.948;6.954;2024-02-26T14:54:46;7.90;99.90
84008;DHT22;74070;50.948;6.954;2024-02-26T14:57:13;7.90;99.90
84008;DHT22;74070;50.948;6.954;2024-02-26T14:59:39;8.00;99.90
84008;DHT22;74070;50.948;6.954;2024-02-26T15:02:06;7.90;99.90
84008;DHT22;74070;50.948;6.954;2024-02-26T15:04:33;7.90;99.90
84008;DHT22;74070;50.948;6.954;2024-02-26T15:06:59;7.90;99.90
84008;DHT22;74070;50.948;6.954;2024-02-26T15:09:26;7.90;99.90
84008;DHT22;74070;50.948;6.954;2024-02-26T15:11:52;7.90;99.90
84008;DHT22;74070;50.948;6.954;2024-02-26T15:14:19;7.90;99.90
84008;DHT22;74070;50.948;6.954;2024-02-26T15:16:46;7.90;99.90
84008;DHT22;74070;50.948;6.954;2024-02-26T15:19:12;7.90;99.90
84008;DHT22;74070;50.948;6.954;2024-02-26T15:21:45;7.90;99.90
84008;DHT22;74070;50.948;6.954;2024-02-26T15:24:11;7.90;99.90
84008;DHT22;74070;50.948;6.954;2024-02-26T15:26:38;8.00;99.90
84008;DHT22;74070;50.948;6.954;2024-02-26T15:29:06;7.90;99.90
84008;DHT22;74070;50.948;6.954;2024-02-26T15:31:32;7.90;99.90
84008;DHT22;74070;50.948;6.954;2024-02-26T15:34:00;7.90;99.90
84008;DHT22;74070;50.948;6.954;2024-02-26T15:36:27;7.90;99.90
84008;DHT22;74070;50.948;6.954;2024-02-26T15:38:55;7.90;99.90
84008;DHT22;74070;50.948;6.954;2024-02-26T15:41:21;7.80;99.90
84008;DHT22;74070;50.948;6.954;2024-02-26T15:43:48;7.80;99.90
84008;DHT22;74070;50.948;6.954;2024-02-26T15:46:14;7.80;99.90
84008;DHT22;74070;50.948;6.954;2024-02-26T15:48:41;7.70;99.90